Time;durP1;ratioP1;P1;durP2;ratioP2;P2;SDS_P1;SDS_P2;PMS_P1;PMS_P2;Temp;Humidity;BMP_temperature;BMP_pressure;BME280_temperature;BME280_humidity;BME280_pressure;Samples;Min_cycle;Max_cycle;Signal;HPM_P1;HPM_P2
2022/11/29 00:00:45;;;;;;;22.15;11.60;;;9.50;99.90;;;;;;4978404;28;20188;-88
2022/11/29 00:03:11;;;;;;;14.48;9.50;;;9.50;99.90;;;;;;4978482;28;20169;-84
2022/11/29 00:05:37;;;;;;;15.75;9.23;;;9.40;99.90;;;;;;4994879;28;20231;-86
2022/11/29 00:08:02;;;;;;;18.92;9.85;;;9.20;99.90;;;;;;4994787;28;20173;-80
2022/11/29 00:10:28;;;;;;;23.38;9.95;;;9.20;99.90;;;;;;4978046;28;20668;-79
2022/11/29 00:12:53;;;;;;;19.65;10.48;;;9.20;99.90;;;;;;4994691;28;20173;-80
2022/11/29 00:15:19;;;;;;;21.60;10.98;;;9.00;99.90;;;;;;4998342;28;20161;-82
2022/11/29 00:17:45;;;;;;;16.02;9.43;;;9.00;99.90;;;;;;4994841;28;20666;-87
2022/11/29 00:20:11;;;;;;;32.13;10.10;;;9.20;99.90;;;;;;4995110;28;20185;-90
2022/11/29 00:22:36;;;;;;;18.13;10.32;;;9.10;99.90;;;;;;4995828;28;20634;-89
2022/11/29 00:25:03;;;;;;;19.50;9.57;;;8.90;99.90;;;;;;4995942;28;20166;-88
2022/11/29 00:27:29;;;;;;;23.75;11.60;;;9.00;99.90;;;;;;4995255;28;20157;-90
2022/11/29 00:29:55;;;;;;;38.88;11.93;;;9.10;99.90;;;;;;4995655;28;20260;-89
2022/11/29 00:32:20;;;;;;;27.17;11.10;;;9.20;99.90;;;;;;4995475;28;20177;-86
2022/11/29 00:34:46;;;;;;;11.20;9.63;;;9.00;99.90;;;;;;4996170;28;20630;-84
2022/11/29 00:37:11;;;;;;;27.88;9.75;;;8.90;99.90;;;;;;4995143;28;20260;-87
2022/11/29 00:39:37;;;;;;;16.02;9.38;;;8.80;99.90;;;;;;4995462;28;20243;-87
2022/11/29 00:42:03;;;;;;;26.85;9.25;;;8.70;99.90;;;;;;4995978;28;20161;-84
2022/11/29 00:44:28;;;;;;;18.23;9.05;;;8.70;99.90;;;;;;4995181;28;20622;-87
2022/11/29 00:46:54;;;;;;;17.27;10.13;;;8.70;99.90;;;;;;4995196;28;20165;-89
2022/11/29 00:49:19;;;;;;;14.13;9.48;;;8.70;99.90;;;;;;4998383;28;20175;-88
2022/11/29 00:51:45;;;;;;;21.38;9.52;;;8.80;99.90;;;;;;4998584;28;20169;-91
2022/11/29 00:54:11;;;;;;;13.45;10.23;;;8.80;99.90;;;;;;4981759;28;20169;-90
2022/11/29 00:56:37;;;;;;;22.08;10.32;;;8.90;99.90;;;;;;4998480;28;20536;-89
2022/11/29 00:59:03;;;;;;;20.17;10.27;;;8.80;99.90;;;;;;4998317;28;20220;-83
2022/11/29 01:01:28;;;;;;;30.85;10.52;;;8.70;99.90;;;;;;4998485;28;20153;-89
2022/11/29 01:03:54;;;;;;;18.00;10.30;;;8.60;99.90;;;;;;4998413;28;20169;-89
2022/11/29 01:06:19;;;;;;;19.23;9.82;;;8.70;99.90;;;;;;5014960;28;20165;-83
2022/11/29 01:08:46;;;;;;;19.50;10.10;;;8.90;99.90;;;;;;5019794;28;20154;-85
2022/11/29 01:11:22;;;;;;;15.43;11.02;;;8.70;99.90;;;;;;5020066;28;20221;-86
2022/11/29 01:13:49;;;;;;;16.40;10.55;;;8.90;99.90;;;;;;4998301;28;20657;-90
2022/11/29 01:16:15;;;;;;;18.98;11.63;;;9.20;99.90;;;;;;4998455;28;20161;-88
2022/11/29 01:18:41;;;;;;;25.33;11.20;;;9.30;99.90;;;;;;4998085;28;20232;-89
2022/11/29 01:21:14;;;;;;;23.30;10.88;;;9.20;99.90;;;;;;4997687;28;20275;-85
2022/11/29 01:23:40;;;;;;;16.15;10.10;;;9.50;99.90;;;;;;4997804;28;20239;-90
2022/11/29 01:26:12;;;;;;;12.63;8.77;;;9.40;99.90;;;;;;4998122;28;20173;-89
2022/11/29 01:28:39;;;;;;;18.85;10.85;;;9.00;99.90;;;;;;4997956;28;20220;-88
2022/11/29 01:31:07;;;;;;;25.30;11.73;;;8.80;99.90;;;;;;4997834;28;20208;-90
2022/11/29 01:33:33;;;;;;;18.55;10.38;;;8.70;99.90;;;;;;4997800;28;20177;-83
2022/11/29 01:35:59;;;;;;;16.13;9.32;;;8.40;99.90;;;;;;4997411;28;20200;-90
2022/11/29 01:38:25;;;;;;;16.02;9.25;;;8.20;99.90;;;;;;4997619;28;20255;-84
2022/11/29 01:40:59;;;;;;;17.70;10.13;;;8.10;99.90;;;;;;4997566;28;20637;-89
2022/11/29 01:43:25;;;;;;;15.82;9.82;;;8.30;99.90;;;;;;4997466;28;20192;-90
2022/11/29 01:45:51;;;;;;;21.33;8.45;;;8.50;99.90;;;;;;4997263;28;20613;-89
2022/11/29 01:48:19;;;;;;;19.08;9.25;;;8.70;99.90;;;;;;4997031;28;20168;-91
2022/11/29 01:50:47;;;;;;;19.67;11.32;;;8.80;99.90;;;;;;4997299;28;20189;-90
2022/11/29 01:53:15;;;;;;;14.68;9.07;;;8.60;99.90;;;;;;4997139;28;20165;-89
2022/11/29 01:55:46;;;;;;;17.23;9.07;;;8.50;99.90;;;;;;4997057;28;20177;-87
2022/11/29 01:58:13;;;;;;;15.85;11.43;;;8.40;99.90;;;;;;4996678;28;20751;-83
2022/11/29 02:00:39;;;;;;;18.30;9.00;;;8.30;99.90;;;;;;4996757;28;20204;-87
2022/11/29 02:03:09;;;;;;;18.23;9.75;;;8.30;99.90;;;;;;4996961;28;20169;-82
2022/11/29 02:05:41;;;;;;;16.33;10.05;;;8.30;99.90;;;;;;4996728;28;20177;-87
2022/11/29 02:08:11;;;;;;;13.55;10.15;;;8.50;99.90;;;;;;4996761;28;20173;-85
2022/11/29 02:11:27;;;;;;;16.98;9.45;;;8.60;99.90;;;;;;4996907;28;20244;-89
2022/11/29 02:14:36;;;;;;;17.08;10.60;;;8.50;99.90;;;;;;4963694;28;20185;-90
2022/11/29 02:17:41;;;;;;;22.48;10.57;;;8.60;99.90;;;;;;4979458;28;20201;-87
2022/11/29 02:20:39;;;;;;;21.95;11.05;;;8.60;99.90;;;;;;4996481;28;20185;-86
2022/11/29 02:23:34;;;;;;;23.55;11.40;;;8.70;99.90;;;;;;4996799;28;20180;-82
2022/11/29 02:26:14;;;;;;;16.65;10.75;;;8.70;99.90;;;;;;4963016;28;20268;-84
2022/11/29 02:28:48;;;;;;;14.85;10.65;;;8.50;99.90;;;;;;4978760;28;20602;-85
2022/11/29 02:31:34;;;;;;;15.10;10.55;;;8.50;99.90;;;;;;4996058;28;20215;-89
2022/11/29 02:34:19;;;;;;;18.65;10.82;;;8.50;99.90;;;;;;4995683;28;20221;-89
2022/11/29 02:37:03;;;;;;;14.90;9.95;;;8.40;99.90;;;;;;4978719;28;20200;-87
2022/11/29 02:39:57;;;;;;;22.95;9.82;;;8.30;99.90;;;;;;4996166;28;20196;-84
2022/11/29 02:42:47;;;;;;;14.32;10.60;;;8.40;99.90;;;;;;4996400;28;20648;-87
2022/11/29 02:45:42;;;;;;;12.95;9.32;;;8.60;99.90;;;;;;4996420;28;20618;-86
2022/11/29 02:48:33;;;;;;;15.95;10.73;;;8.60;99.90;;;;;;4997393;28;20241;-85
2022/11/29 02:51:26;;;;;;;13.18;10.88;;;8.70;99.90;;;;;;4996782;28;20185;-79
2022/11/29 02:54:10;;;;;;;23.38;10.60;;;8.80;99.90;;;;;;4997693;28;20527;-80
2022/11/29 02:56:43;;;;;;;14.85;11.07;;;8.70;99.90;;;;;;4998303;28;20177;-80
2022/11/29 02:59:36;;;;;;;10.75;8.75;;;8.50;99.90;;;;;;4997285;28;20174;-83
2022/11/29 03:02:10;;;;;;;11.45;9.35;;;8.10;99.90;;;;;;5012192;28;20197;-84
2022/11/29 03:04:36;;;;;;;19.50;9.60;;;8.20;99.90;;;;;;5010369;28;20527;-83
2022/11/29 03:07:05;;;;;;;18.30;10.45;;;8.20;99.90;;;;;;5007725;28;20264;-79
2022/11/29 03:09:48;;;;;;;11.60;9.85;;;8.20;99.90;;;;;;5011050;28;20196;-82
2022/11/29 03:12:39;;;;;;;15.85;9.90;;;8.50;99.90;;;;;;5014301;28;20176;-80
2022/11/29 03:15:30;;;;;;;13.13;9.63;;;8.60;99.90;;;;;;5015144;28;20169;-80
2022/11/29 03:18:21;;;;;;;16.38;9.50;;;8.60;99.90;;;;;;5014929;28;20221;-81
2022/11/29 03:21:16;;;;;;;16.30;9.80;;;8.90;99.90;;;;;;5013431;28;20165;-78
2022/11/29 03:23:53;;;;;;;16.45;9.40;;;9.00;99.90;;;;;;4997057;28;20177;-83
2022/11/29 03:26:40;;;;;;;10.20;8.65;;;9.10;99.90;;;;;;5015163;28;20200;-84
2022/11/29 03:29:14;;;;;;;10.57;7.93;;;8.80;99.90;;;;;;5006421;28;20267;-89
2022/11/29 03:32:02;;;;;;;13.13;9.30;;;9.00;99.90;;;;;;4983051;28;20251;-90
2022/11/29 03:34:52;;;;;;;8.73;7.82;;;8.80;99.90;;;;;;4985277;28;20203;-88
2022/11/29 03:37:24;;;;;;;12.73;9.00;;;8.80;99.90;;;;;;5010151;28;20224;-89
2022/11/29 03:40:02;;;;;;;9.80;8.77;;;9.00;99.90;;;;;;5017796;28;20173;-80
2022/11/29 03:42:36;;;;;;;10.20;9.15;;;9.20;99.90;;;;;;5018995;28;20195;-87
2022/11/29 03:45:05;;;;;;;12.57;9.05;;;9.00;99.90;;;;;;5018941;28;20160;-78
2022/11/29 03:48:02;;;;;;;17.50;9.57;;;8.70;99.90;;;;;;5017247;28;20177;-88
2022/11/29 03:50:50;;;;;;;17.67;8.70;;;8.70;99.90;;;;;;4998932;28;20193;-89
2022/11/29 03:53:32;;;;;;;8.93;8.02;;;8.60;99.90;;;;;;5001616;28;20166;-90
2022/11/29 03:56:02;;;;;;;9.65;8.32;;;8.40;99.90;;;;;;5000669;28;20173;-89
2022/11/29 03:58:55;;;;;;;9.30;8.40;;;8.30;99.90;;;;;;5004026;28;20303;-90
2022/11/29 04:01:20;;;;;;;9.50;8.48;;;8.30;99.90;;;;;;4998620;28;20193;-85
2022/11/29 04:03:55;;;;;;;15.05;7.80;;;8.40;99.90;;;;;;5000276;28;20170;-89
2022/11/29 04:06:48;;;;;;;9.40;7.70;;;8.60;99.90;;;;;;4998370;28;20165;-86
2022/11/29 04:09:37;;;;;;;16.48;8.75;;;8.60;99.90;;;;;;4999045;28;20173;-89
2022/11/29 04:12:37;;;;;;;9.65;8.63;;;8.80;99.90;;;;;;5002205;28;20248;-88
2022/11/29 04:15:23;;;;;;;13.30;8.60;;;8.80;99.90;;;;;;5000784;28;20177;-87
2022/11/29 04:17:54;;;;;;;8.00;7.30;;;8.80;99.90;;;;;;4982628;28;20212;-83
2022/11/29 04:20:53;;;;;;;10.05;7.50;;;8.70;99.90;;;;;;5006301;28;20538;-85
2022/11/29 04:23:21;;;;;;;13.65;8.68;;;8.70;99.90;;;;;;5000362;28;20169;-87
2022/11/29 04:26:31;;;;;;;13.90;7.45;;;8.60;99.90;;;;;;5001457;28;20172;-84
2022/11/29 04:29:27;;;;;;;10.10;7.57;;;8.50;99.90;;;;;;4984795;28;20184;-84
2022/11/29 04:32:02;;;;;;;9.52;7.35;;;8.50;99.90;;;;;;4999244;28;20203;-89
2022/11/29 04:34:43;;;;;;;12.27;9.10;;;8.60;99.90;;;;;;4999510;28;20172;-84
2022/11/29 04:37:37;;;;;;;11.27;8.10;;;8.80;99.90;;;;;;4998709;28;20193;-88
2022/11/29 04:40:40;;;;;;;8.73;7.75;;;8.90;99.90;;;;;;4998733;28;20185;-90
2022/11/29 04:43:39;;;;;;;10.63;8.35;;;8.80;99.90;;;;;;4999624;28;20184;-90
2022/11/29 04:46:13;;;;;;;12.52;7.32;;;8.60;99.90;;;;;;4988871;28;20185;-88
2022/11/29 04:49:13;;;;;;;9.43;7.35;;;8.50;99.90;;;;;;4999389;28;20156;-88
2022/11/29 04:52:06;;;;;;;12.63;7.18;;;8.50;99.90;;;;;;4982212;28;20717;-85
2022/11/29 04:55:09;;;;;;;8.95;8.25;;;8.60;99.90;;;;;;4982886;28;20181;-87
2022/11/29 04:57:44;;;;;;;8.50;7.50;;;8.70;99.90;;;;;;4998398;28;20231;-85
2022/11/29 05:00:56;;;;;;;20.02;9.00;;;9.00;99.90;;;;;;4994484;28;20200;-87
2022/11/29 05:03:46;;;;;;;14.35;8.65;;;8.80;99.90;;;;;;5001470;28;20252;-89
2022/11/29 05:06:53;;;;;;;8.25;7.50;;;8.90;99.90;;;;;;4997031;28;20189;-87
2022/11/29 05:10:00;;;;;;;16.08;8.10;;;8.80;99.90;;;;;;4995902;28;20193;-84
2022/11/29 05:13:07;;;;;;;10.48;7.93;;;8.80;99.90;;;;;;4953234;28;20181;-82
2022/11/29 05:15:36;;;;;;;14.55;8.95;;;9.00;99.90;;;;;;4998741;28;20173;-80
2022/11/29 05:18:32;;;;;;;10.30;8.55;;;9.20;99.90;;;;;;5002157;28;20216;-79
2022/11/29 05:21:23;;;;;;;12.57;8.57;;;9.10;99.90;;;;;;4952573;28;20221;-90
2022/11/29 05:24:13;;;;;;;9.02;8.13;;;9.10;99.90;;;;;;4998013;28;20247;-79
2022/11/29 05:27:07;;;;;;;15.85;8.07;;;9.30;99.90;;;;;;4996100;28;20216;-78
2022/11/29 05:29:58;;;;;;;8.75;8.00;;;9.20;99.90;;;;;;4997239;28;20199;-83
2022/11/29 05:32:29;;;;;;;11.40;7.10;;;9.10;99.90;;;;;;4997388;28;20181;-79
2022/11/29 05:35:25;;;;;;;12.25;7.75;;;9.00;99.90;;;;;;5000139;28;20169;-79
2022/11/29 05:38:09;;;;;;;12.98;7.53;;;8.90;99.90;;;;;;5002255;28;20204;-83
2022/11/29 05:40:52;;;;;;;9.07;8.18;;;8.90;99.90;;;;;;4985230;28;20193;-78
2022/11/29 05:43:42;;;;;;;12.73;7.65;;;8.90;99.90;;;;;;4989150;28;20220;-91
2022/11/29 05:46:29;;;;;;;8.60;7.78;;;8.90;99.90;;;;;;4998048;28;20252;-79
2022/11/29 05:49:21;;;;;;;8.35;7.55;;;8.60;99.90;;;;;;4979985;28;20320;-82
2022/11/29 05:52:25;;;;;;;8.48;7.45;;;8.50;99.90;;;;;;4997635;28;20157;-81
2022/11/29 05:55:09;;;;;;;11.32;7.95;;;8.50;99.90;;;;;;4997509;28;20177;-80
2022/11/29 05:57:52;;;;;;;26.20;8.18;;;8.90;99.90;;;;;;4997414;28;20205;-89
2022/11/29 06:00:29;;;;;;;10.20;8.10;;;9.00;99.90;;;;;;4997439;28;20188;-86
2022/11/29 06:03:20;;;;;;;16.73;7.75;;;9.00;99.90;;;;;;4996994;28;20173;-80
2022/11/29 06:06:07;;;;;;;17.40;7.15;;;8.80;99.90;;;;;;4979961;28;20520;-80
2022/11/29 06:08:54;;;;;;;10.63;7.22;;;8.80;99.90;;;;;;4997418;28;20169;-79
2022/11/29 06:11:30;;;;;;;10.90;7.53;;;8.90;99.90;;;;;;4996485;28;20633;-79
2022/11/29 06:14:13;;;;;;;16.63;7.35;;;9.10;99.90;;;;;;4995896;28;20172;-87
2022/11/29 06:16:49;;;;;;;10.30;8.07;;;9.10;99.90;;;;;;4995381;28;20264;-80
2022/11/29 06:19:28;;;;;;;13.45;7.90;;;9.20;99.90;;;;;;4978138;28;20271;-79
2022/11/29 06:22:15;;;;;;;11.25;8.05;;;9.10;99.90;;;;;;4995574;28;20688;-89
2022/11/29 06:25:11;;;;;;;8.63;7.28;;;9.10;99.90;;;;;;4995499;28;20280;-80
2022/11/29 06:27:58;;;;;;;9.57;8.40;;;9.20;99.90;;;;;;4995479;28;20161;-80
2022/11/29 06:30:37;;;;;;;8.25;7.53;;;9.20;99.90;;;;;;4995349;28;20243;-79
2022/11/29 06:33:10;;;;;;;8.80;7.53;;;9.20;99.90;;;;;;4995880;28;20177;-79
2022/11/29 06:35:55;;;;;;;14.20;7.68;;;9.10;99.90;;;;;;4994899;28;20253;-81
2022/11/29 06:38:27;;;;;;;10.65;8.65;;;9.10;99.90;;;;;;4995019;28;20236;-83
2022/11/29 06:40:54;;;;;;;31.70;9.13;;;9.10;99.90;;;;;;4994788;28;20226;-79
2022/11/29 06:43:20;;;;;;;7.82;7.13;;;9.20;99.90;;;;;;4994774;28;20177;-81
2022/11/29 06:45:53;;;;;;;16.50;8.35;;;9.10;99.90;;;;;;4993326;28;20176;-79
2022/11/29 06:48:25;;;;;;;9.38;8.27;;;9.30;99.90;;;;;;4995357;28;20169;-80
2022/11/29 06:51:11;;;;;;;15.50;8.32;;;9.40;99.90;;;;;;4995458;28;20705;-82
2022/11/29 06:53:58;;;;;;;13.05;7.75;;;9.50;99.90;;;;;;4994982;28;20598;-79
2022/11/29 06:56:47;;;;;;;12.48;8.57;;;9.40;99.90;;;;;;4994922;28;20207;-79
2022/11/29 06:59:27;;;;;;;15.50;7.90;;;9.50;99.90;;;;;;4977497;28;20745;-80
2022/11/29 07:02:03;;;;;;;11.50;8.05;;;9.60;99.90;;;;;;4994981;28;20239;-79
2022/11/29 07:04:54;;;;;;;12.68;8.68;;;9.90;99.90;;;;;;4993841;28;20169;-79
2022/11/29 07:07:22;;;;;;;26.05;8.75;;;9.80;99.90;;;;;;4994358;28;20162;-81
2022/11/29 07:09:51;;;;;;;14.27;8.40;;;9.60;99.90;;;;;;4994876;28;20217;-79
2022/11/29 07:12:18;;;;;;;9.57;8.68;;;9.80;99.90;;;;;;4977454;28;20668;-79
2022/11/29 07:14:44;;;;;;;13.75;8.57;;;9.90;99.90;;;;;;4995003;28;20215;-80
2022/11/29 07:17:27;;;;;;;19.05;9.25;;;9.60;99.90;;;;;;4977054;28;20216;-80
2022/11/29 07:20:28;;;;;;;21.13;10.10;;;9.60;99.90;;;;;;4994605;28;20219;-79
2022/11/29 07:23:13;;;;;;;16.80;9.82;;;9.90;99.90;;;;;;4961821;28;20208;-80
2022/11/29 07:25:50;;;;;;;23.25;10.65;;;9.80;99.90;;;;;;4976840;28;20172;-80
2022/11/29 07:28:49;;;;;;;14.23;9.80;;;9.80;99.90;;;;;;4993576;28;20195;-82
2022/11/29 07:31:24;;;;;;;15.30;9.73;;;9.70;99.90;;;;;;4993718;28;20252;-80
2022/11/29 07:34:27;;;;;;;14.88;9.65;;;9.60;99.90;;;;;;4994494;28;20186;-80
2022/11/29 07:37:29;;;;;;;10.85;9.70;;;9.50;99.90;;;;;;4998047;28;20291;-79
2022/11/29 07:40:01;;;;;;;15.52;10.18;;;9.40;99.90;;;;;;4997218;28;20189;-90
2022/11/29 07:42:46;;;;;;;14.98;10.02;;;9.50;99.90;;;;;;4999506;28;20233;-82
2022/11/29 07:45:27;;;;;;;14.40;10.40;;;9.40;99.90;;;;;;5014900;28;20510;-80
2022/11/29 07:47:53;;;;;;;18.77;9.82;;;9.20;99.90;;;;;;4994982;28;20256;-90
2022/11/29 07:50:21;;;;;;;14.27;9.82;;;9.00;99.90;;;;;;4997394;28;20189;-82
2022/11/29 07:52:48;;;;;;;29.10;9.82;;;9.00;99.90;;;;;;5001281;28;20201;-82
2022/11/29 07:55:16;;;;;;;10.85;9.70;;;9.10;99.90;;;;;;4990668;28;20200;-83
2022/11/29 07:57:42;;;;;;;20.85;11.23;;;8.90;99.90;;;;;;4983089;28;20220;-80
2022/11/29 08:00:09;;;;;;;21.55;10.98;;;8.50;99.90;;;;;;4998430;28;20189;-80
2022/11/29 08:02:37;;;;;;;15.82;11.10;;;8.30;99.90;;;;;;4992801;28;20153;-81
2022/11/29 08:05:03;;;;;;;17.73;10.07;;;8.20;99.90;;;;;;5003800;28;20276;-80
2022/11/29 08:07:31;;;;;;;15.43;10.07;;;8.10;99.90;;;;;;5003999;28;20153;-80
2022/11/29 08:10:00;;;;;;;15.35;9.32;;;8.20;99.90;;;;;;4988171;28;20204;-82
2022/11/29 08:12:27;;;;;;;17.90;10.05;;;8.30;99.90;;;;;;5005561;28;20222;-83
2022/11/29 08:14:52;;;;;;;21.88;9.35;;;8.10;99.90;;;;;;4981086;28;20157;-82
2022/11/29 08:17:19;;;;;;;19.58;9.52;;;8.30;99.90;;;;;;5002658;28;20704;-88
2022/11/29 08:19:44;;;;;;;23.65;8.88;;;8.40;99.90;;;;;;4969602;28;20185;-81
2022/11/29 08:22:11;;;;;;;24.08;8.15;;;8.40;99.90;;;;;;4996108;28;20252;-78
2022/11/29 08:24:37;;;;;;;17.70;9.38;;;8.40;99.90;;;;;;4996435;28;20169;-79
2022/11/29 08:27:02;;;;;;;8.32;7.28;;;8.60;99.90;;;;;;4995196;28;20176;-79
2022/11/29 08:29:28;;;;;;;10.82;7.88;;;8.60;99.90;;;;;;4996694;28;20288;-81
2022/11/29 08:31:54;;;;;;;10.65;7.72;;;8.50;99.90;;;;;;4995529;28;20283;-80
2022/11/29 08:34:20;;;;;;;14.48;7.93;;;8.20;99.90;;;;;;4978002;28;20708;-79
2022/11/29 08:36:46;;;;;;;33.80;9.45;;;8.10;99.90;;;;;;4996859;28;20208;-81
2022/11/29 08:39:11;;;;;;;24.02;9.27;;;8.00;99.90;;;;;;4998071;28;20177;-80
2022/11/29 08:41:37;;;;;;;12.77;8.95;;;8.20;99.90;;;;;;5010944;28;20417;-81
2022/11/29 08:44:09;;;;;;;20.17;9.63;;;8.00;99.90;;;;;;5015223;28;20175;-80
2022/11/29 08:49:18;;;;;;;12.63;9.07;;;7.90;99.90;;;;;;4999998;28;20315;-82
2022/11/29 08:51:44;;;;;;;20.73;9.25;;;8.10;99.90;;;;;;4998496;28;20643;-81
2022/11/29 08:54:10;;;;;;;25.52;9.05;;;8.20;99.90;;;;;;4982283;28;20295;-82
2022/11/29 08:56:36;;;;;;;25.05;10.02;;;8.20;99.90;;;;;;4981295;28;20169;-82
2022/11/29 08:59:06;;;;;;;12.48;8.90;;;8.20;99.90;;;;;;4991749;28;20179;-81
2022/11/29 09:01:32;;;;;;;24.95;9.00;;;8.10;99.90;;;;;;4993467;28;20551;-81
2022/11/29 09:04:05;;;;;;;18.08;9.13;;;8.10;99.90;;;;;;4990931;28;20172;-81
2022/11/29 09:06:40;;;;;;;15.40;8.25;;;8.10;99.90;;;;;;4973263;28;20177;-81
2022/11/29 09:09:06;;;;;;;14.13;7.72;;;8.30;99.90;;;;;;4990061;28;20180;-82
2022/11/29 09:11:32;;;;;;;20.75;7.72;;;8.20;99.90;;;;;;4981369;28;20525;-82
2022/11/29 09:14:01;;;;;;;19.52;7.82;;;8.30;99.90;;;;;;4977081;28;20201;-81
2022/11/29 09:16:29;;;;;;;14.20;6.63;;;8.40;99.90;;;;;;4993518;28;20196;-82
2022/11/29 09:18:56;;;;;;;29.10;7.05;;;8.40;99.90;;;;;;4998081;28;20284;-82
2022/11/29 09:21:26;;;;;;;12.73;7.07;;;8.40;99.90;;;;;;4995356;28;20674;-82
2022/11/29 09:23:57;;;;;;;10.25;7.50;;;8.30;99.90;;;;;;4977080;28;20192;-82
2022/11/29 09:26:26;;;;;;;24.38;6.40;;;8.30;99.90;;;;;;4979310;28;20181;-81
2022/11/29 09:28:52;;;;;;;17.00;6.72;;;8.40;99.90;;;;;;4975306;28;20183;-82
2022/11/29 09:31:19;;;;;;;13.43;7.13;;;8.40;99.90;;;;;;4976296;28;20217;-81
2022/11/29 09:33:45;;;;;;;9.07;6.57;;;8.60;99.90;;;;;;4995696;28;20532;-81
2022/11/29 09:36:11;;;;;;;14.32;6.88;;;8.30;99.90;;;;;;4995588;28;20172;-81
2022/11/29 09:38:37;;;;;;;16.63;6.75;;;8.30;99.90;;;;;;4977989;28;20209;-82
2022/11/29 09:41:31;;;;;;;16.40;7.00;;;8.10;99.90;;;;;;4977707;28;20259;-81
2022/11/29 09:44:28;;;;;;;38.30;7.57;;;8.30;99.90;;;;;;4995392;28;20172;-81
2022/11/29 09:47:12;;;;;;;18.38;6.47;;;8.30;99.90;;;;;;4995072;28;20173;-81
2022/11/29 09:49:58;;;;;;;17.65;7.13;;;8.40;99.90;;;;;;4995667;28;20185;-81
2022/11/29 09:52:40;;;;;;;14.90;7.55;;;8.40;99.90;;;;;;5011590;28;20183;-81
2022/11/29 09:55:24;;;;;;;17.55;7.72;;;8.80;99.90;;;;;;4997525;28;20183;-81
2022/11/29 09:57:52;;;;;;;15.15;8.18;;;8.60;99.90;;;;;;5014207;28;20203;-81
2022/11/29 10:00:18;;;;;;;14.00;6.95;;;8.90;99.90;;;;;;4996355;28;20220;-81
2022/11/29 10:02:52;;;;;;;12.05;6.90;;;9.00;99.90;;;;;;4996746;28;20221;-81
2022/11/29 10:05:30;;;;;;;12.57;7.78;;;9.00;99.90;;;;;;4976097;28;20165;-82
2022/11/29 10:08:01;;;;;;;8.93;6.45;;;9.20;99.90;;;;;;4976939;28;20173;-81
2022/11/29 10:10:40;;;;;;;9.43;6.85;;;8.80;99.90;;;;;;4994942;28;20224;-81
2022/11/29 10:13:05;;;;;;;14.57;7.63;;;9.00;99.90;;;;;;4994708;28;20173;-81
2022/11/29 10:15:38;;;;;;;14.18;8.57;;;9.10;99.90;;;;;;4977563;28;20589;-81
2022/11/29 10:18:15;;;;;;;14.23;7.10;;;9.30;99.90;;;;;;4977588;28;20212;-81
2022/11/29 10:20:44;;;;;;;19.15;7.88;;;9.30;99.90;;;;;;4976981;28;20563;-81
2022/11/29 10:23:43;;;;;;;16.70;7.90;;;9.10;99.90;;;;;;4977372;28;20535;-81
2022/11/29 10:26:11;;;;;;;16.30;8.32;;;9.10;99.90;;;;;;4984104;28;20184;-81
2022/11/29 10:28:43;;;;;;;10.93;7.40;;;9.20;99.90;;;;;;4976154;28;20630;-81
2022/11/29 10:31:31;;;;;;;13.30;7.68;;;9.10;99.90;;;;;;4977618;28;20215;-81
2022/11/29 10:34:00;;;;;;;11.43;9.13;;;9.20;99.90;;;;;;5003088;28;20184;-81
2022/11/29 10:36:43;;;;;;;10.32;7.15;;;9.60;99.90;;;;;;4995676;28;20633;-81
2022/11/29 10:39:28;;;;;;;14.18;8.05;;;9.50;99.90;;;;;;5000212;28;20192;-82
2022/11/29 10:41:59;;;;;;;12.23;8.45;;;9.40;99.90;;;;;;4993121;28;20184;-81
2022/11/29 10:44:25;;;;;;;11.85;8.48;;;9.30;99.90;;;;;;4995772;28;20180;-81
2022/11/29 10:46:52;;;;;;;14.68;8.88;;;9.40;99.90;;;;;;4994448;28;20226;-80
2022/11/29 10:49:20;;;;;;;9.45;6.70;;;9.70;99.90;;;;;;4972921;28;20323;-81
2022/11/29 10:51:46;;;;;;;15.10;7.60;;;9.70;99.90;;;;;;4976058;28;20177;-83
2022/11/29 10:54:38;;;;;;;14.88;9.02;;;9.70;99.90;;;;;;4975061;28;20168;-80
2022/11/29 10:57:18;;;;;;;13.73;8.40;;;9.80;99.90;;;;;;5011766;28;20298;-83
2022/11/29 11:00:05;;;;;;;11.85;8.43;;;9.50;99.90;;;;;;5003577;28;20231;-81
2022/11/29 11:02:32;;;;;;;17.48;8.30;;;9.50;99.90;;;;;;4994363;28;20183;-80
2022/11/29 11:04:58;;;;;;;11.13;8.07;;;9.50;99.90;;;;;;4992577;28;20165;-81
2022/11/29 11:07:26;;;;;;;12.32;8.07;;;9.60;99.90;;;;;;4974804;28;20607;-81
2022/11/29 11:09:55;;;;;;;12.07;7.95;;;9.50;99.90;;;;;;4992457;28;20300;-82
2022/11/29 11:12:25;;;;;;;14.02;6.60;;;9.60;99.90;;;;;;4994784;28;20165;-89
2022/11/29 11:14:50;;;;;;;9.18;7.30;;;9.60;99.90;;;;;;4978781;28;20195;-89
2022/11/29 11:17:31;;;;;;;13.23;7.28;;;9.50;99.90;;;;;;4978840;28;20213;-89
2022/11/29 11:20:19;;;;;;;19.40;7.82;;;9.40;99.90;;;;;;4977932;28;20226;-85
2022/11/29 11:23:00;;;;;;;18.98;7.82;;;9.50;99.90;;;;;;4977325;28;20165;-82
2022/11/29 11:25:37;;;;;;;14.73;9.10;;;9.60;99.90;;;;;;4993695;28;20184;-82
2022/11/29 11:28:42;;;;;;;14.85;8.75;;;9.50;99.90;;;;;;4992331;28;20223;-83
2022/11/29 11:31:09;;;;;;;10.77;7.00;;;9.60;99.90;;;;;;4917439;29;20206;-82
2022/11/29 11:33:40;;;;;;;10.93;7.65;;;9.30;99.90;;;;;;4966052;28;20281;-80
2022/11/29 11:36:26;;;;;;;14.23;8.77;;;9.30;99.90;;;;;;4976232;28;20181;-80
2022/11/29 11:38:57;;;;;;;11.35;9.57;;;9.20;99.90;;;;;;4993961;28;20296;-81
2022/11/29 11:44:39;;;;;;;10.10;7.80;;;9.40;99.90;;;;;;4993727;28;20741;-81
2022/11/29 11:47:10;;;;;;;10.73;8.20;;;9.40;99.90;;;;;;4993496;28;20618;-80
2022/11/29 11:49:52;;;;;;;10.68;8.85;;;9.60;99.90;;;;;;4993362;28;20189;-80
2022/11/29 11:52:30;;;;;;;12.15;8.45;;;9.50;99.90;;;;;;4976153;28;20536;-79
2022/11/29 11:55:20;;;;;;;8.13;7.03;;;9.60;99.90;;;;;;4993344;28;20167;-79
2022/11/29 11:58:09;;;;;;;8.63;7.45;;;9.70;99.90;;;;;;4993166;28;20208;-79
2022/11/29 12:00:44;;;;;;;12.68;6.88;;;10.00;99.90;;;;;;4966377;28;20201;-79
2022/11/29 12:03:44;;;;;;;10.30;7.18;;;9.90;99.90;;;;;;4976186;28;20594;-82
2022/11/29 12:06:19;;;;;;;8.75;6.65;;;10.00;99.90;;;;;;4945015;28;20188;-81
2022/11/29 12:08:47;;;;;;;14.93;7.70;;;9.50;99.90;;;;;;4993053;28;20173;-81
2022/11/29 12:11:17;;;;;;;9.65;7.65;;;9.60;99.90;;;;;;4992776;28;20196;-82
2022/11/29 12:13:54;;;;;;;12.15;7.90;;;9.90;99.90;;;;;;4993242;28;20161;-80
2022/11/29 12:16:29;;;;;;;10.48;7.80;;;9.90;99.90;;;;;;4993151;28;20184;-80
2022/11/29 12:19:05;;;;;;;8.52;7.60;;;9.70;99.90;;;;;;4992764;28;20204;-80
2022/11/29 12:21:37;;;;;;;9.70;7.18;;;9.90;99.90;;;;;;4993125;28;20176;-80
2022/11/29 12:24:26;;;;;;;8.68;6.78;;;10.10;99.90;;;;;;4975611;28;20181;-80
2022/11/29 12:26:55;;;;;;;7.55;6.75;;;9.80;99.90;;;;;;4975819;28;20227;-80
2022/11/29 12:29:21;;;;;;;6.75;6.13;;;9.90;99.90;;;;;;4993130;28;20161;-83
2022/11/29 12:31:54;;;;;;;10.30;6.88;;;9.90;99.90;;;;;;4975760;28;20184;-80
2022/11/29 12:34:38;;;;;;;8.52;7.43;;;9.80;99.90;;;;;;4992841;28;20169;-81
2022/11/29 12:37:07;;;;;;;12.95;8.15;;;9.90;99.90;;;;;;4975311;28;20209;-81
2022/11/29 12:39:49;;;;;;;14.27;8.77;;;9.90;99.90;;;;;;4975462;28;20193;-83
2022/11/29 12:42:24;;;;;;;15.10;9.43;;;9.80;99.90;;;;;;4975347;28;20177;-80
2022/11/29 12:45:16;;;;;;;14.82;8.70;;;9.80;99.90;;;;;;4979674;28;20184;-80
2022/11/29 12:48:17;;;;;;;10.27;8.18;;;9.80;99.90;;;;;;4979889;28;20197;-81
2022/11/29 12:51:09;;;;;;;8.93;7.80;;;9.80;99.90;;;;;;4996890;28;20193;-82
2022/11/29 12:54:07;;;;;;;14.98;7.00;;;9.80;99.90;;;;;;4990120;28;20234;-80
2022/11/29 12:56:57;;;;;;;19.42;7.40;;;9.50;99.90;;;;;;4997497;28;20168;-80
2022/11/29 12:59:25;;;;;;;9.20;7.72;;;9.50;99.90;;;;;;5016067;28;20196;-80
2022/11/29 13:02:06;;;;;;;18.60;8.35;;;9.50;99.90;;;;;;5016349;28;20196;-80
2022/11/29 13:04:48;;;;;;;16.83;7.63;;;9.50;99.90;;;;;;5016880;28;20195;-80
2022/11/29 13:07:53;;;;;;;17.63;7.82;;;9.70;99.90;;;;;;5015980;28;20165;-81
2022/11/29 13:10:43;;;;;;;10.32;7.35;;;9.50;99.90;;;;;;5016114;28;20242;-81
2022/11/29 13:13:36;;;;;;;15.30;8.05;;;9.70;99.90;;;;;;5016118;28;20165;-81
2022/11/29 13:16:37;;;;;;;8.15;6.75;;;9.80;99.90;;;;;;4998384;28;20181;-81
2022/11/29 13:19:08;;;;;;;14.95;7.20;;;9.70;99.90;;;;;;5016059;28;20203;-81
2022/11/29 13:21:43;;;;;;;11.20;7.90;;;9.90;99.90;;;;;;5016434;28;20187;-85
2022/11/29 13:24:24;;;;;;;8.85;7.95;;;9.90;99.90;;;;;;4999225;28;20180;-85
2022/11/29 13:26:51;;;;;;;11.63;6.75;;;9.90;99.90;;;;;;4998573;28;20168;-80
2022/11/29 13:29:17;;;;;;;9.88;7.50;;;9.80;99.90;;;;;;4998444;28;20182;-81
2022/11/29 13:31:45;;;;;;;7.80;6.68;;;10.00;99.90;;;;;;4997965;28;20184;-81
2022/11/29 13:34:17;;;;;;;10.18;8.82;;;9.90;99.90;;;;;;4998367;28;20272;-79
2022/11/29 13:36:56;;;;;;;9.82;7.20;;;9.90;99.90;;;;;;5015422;28;20175;-81
2022/11/29 13:39:49;;;;;;;15.82;6.25;;;10.00;99.90;;;;;;5015693;28;20223;-80
2022/11/29 13:42:20;;;;;;;24.25;8.23;;;10.00;99.90;;;;;;5015722;28;20184;-80
2022/11/29 13:45:20;;;;;;;8.18;6.78;;;10.00;99.90;;;;;;4997868;28;20554;-80